Time;durP1;ratioP1;P1;durP2;ratioP2;P2;SDS_P1;SDS_P2;PMS_P1;PMS_P2;Temp;Humidity;BMP_temperature;BMP_pressure;BME280_temperature;BME280_humidity;BME280_pressure;Samples;Min_cycle;Max_cycle;Signal;HPM_P1;HPM_P2
2022/11/23 00:01:32;;;;;;;20.40;15.63;;;;;;;7.33;77.26;93664.75;5024103;28;20211;-70
2022/11/23 00:04:01;;;;;;;16.07;13.80;;;;;;;7.38;77.20;93672.91;5018766;28;20191;-70
2022/11/23 00:06:27;;;;;;;15.43;13.63;;;;;;;7.38;76.82;93672.09;5019960;28;20190;-70
2022/11/23 00:08:53;;;;;;;13.93;12.50;;;;;;;7.49;76.59;93675.19;5016771;28;20198;-70
2022/11/23 00:11:20;;;;;;;14.37;13.03;;;;;;;7.74;74.82;93670.72;5026066;28;20187;-70
2022/11/23 00:13:46;;;;;;;13.27;11.87;;;;;;;7.68;74.23;93674.00;5018474;28;20221;-70
2022/11/23 00:16:14;;;;;;;12.50;10.53;;;;;;;7.60;73.94;93681.06;5021550;28;20194;-70
2022/11/23 00:18:40;;;;;;;12.60;10.83;;;;;;;7.56;73.98;93672.72;5019332;28;20222;-70
2022/11/23 00:21:11;;;;;;;13.80;11.33;;;;;;;7.46;74.34;93670.28;5018933;28;20230;-70
2022/11/23 00:23:37;;;;;;;11.53;10.30;;;;;;;7.46;74.80;93680.75;5018730;28;20182;-70
2022/11/23 00:26:03;;;;;;;12.37;10.60;;;;;;;7.53;74.83;93674.84;5021295;28;20183;-70
2022/11/23 00:28:29;;;;;;;12.10;10.20;;;;;;;7.56;74.40;93666.66;5018521;28;20217;-70
2022/11/23 00:30:54;;;;;;;11.43;10.33;;;;;;;7.54;74.30;93663.41;5020113;28;20238;-70
2022/11/23 00:33:20;;;;;;;13.17;11.40;;;;;;;7.42;75.68;93671.59;5018363;28;20414;-70
2022/11/23 00:35:45;;;;;;;12.40;10.97;;;;;;;7.49;76.63;93688.28;5021337;28;20183;-69
2022/11/23 00:38:11;;;;;;;11.80;10.07;;;;;;;7.50;75.82;93683.84;5023837;28;20255;-70
2022/11/23 00:40:36;;;;;;;10.80;9.73;;;;;;;7.67;74.71;93675.00;5026597;28;20201;-70
2022/11/23 00:43:02;;;;;;;10.60;9.50;;;;;;;7.51;74.92;93675.00;5020953;28;20214;-70
2022/11/23 00:45:27;;;;;;;11.50;10.30;;;;;;;7.46;75.56;93675.53;5020489;28;20190;-70
2022/11/23 00:47:52;;;;;;;11.43;9.83;;;;;;;7.40;75.90;93668.31;5020365;28;20191;-70
2022/11/23 00:50:18;;;;;;;11.33;9.87;;;;;;;7.61;75.48;93687.91;5020285;28;20236;-70
2022/11/23 00:52:43;;;;;;;10.93;9.83;;;;;;;7.67;75.17;93676.78;5031406;28;20193;-70
2022/11/23 00:55:09;;;;;;;10.57;9.23;;;;;;;7.49;76.04;93683.03;5019874;28;20224;-71
2022/11/23 00:57:34;;;;;;;13.43;10.03;;;;;;;7.43;76.49;93668.00;5023672;28;20182;-70
2022/11/23 01:00:00;;;;;;;11.07;9.80;;;;;;;7.52;76.40;93666.19;5019827;28;20210;-70
2022/11/23 01:02:25;;;;;;;11.70;10.57;;;;;;;7.44;77.59;93666.22;5014881;28;20206;-69
2022/11/23 01:04:51;;;;;;;11.53;10.33;;;;;;;7.45;78.37;93636.44;5023041;28;20225;-69
2022/11/23 01:07:16;;;;;;;10.57;9.53;;;;;;;7.41;78.24;93649.06;5023553;28;20272;-69
2022/11/23 01:09:42;;;;;;;11.50;10.23;;;;;;;7.35;79.00;93651.50;5021509;28;20194;-69
2022/11/23 01:12:07;;;;;;;10.97;9.87;;;;;;;7.46;79.16;93659.84;5023106;28;20182;-68
2022/11/23 01:14:33;;;;;;;11.17;10.00;;;;;;;7.48;79.67;93670.09;5018008;28;20206;-66
2022/11/23 01:16:58;;;;;;;11.50;10.30;;;;;;;7.45;80.41;93676.50;5017723;28;20215;-67
2022/11/23 01:19:24;;;;;;;10.33;9.23;;;;;;;7.39;80.18;93650.19;5018102;28;20240;-67
2022/11/23 01:21:49;;;;;;;11.00;9.80;;;;;;;7.45;79.74;93659.97;5020708;28;20224;-67
2022/11/23 01:24:21;;;;;;;11.23;9.53;;;;;;;7.50;79.52;93653.28;5038640;28;20217;-67
2022/11/23 01:26:54;;;;;;;11.87;10.67;;;;;;;7.46;80.18;93643.31;5020485;28;20190;-68
2022/11/23 01:29:20;;;;;;;12.50;11.10;;;;;;;7.37;80.83;93642.50;5025317;28;20656;-68
2022/11/23 01:31:46;;;;;;;11.87;10.67;;;;;;;7.37;81.13;93642.50;5026180;28;20241;-68
2022/11/23 01:34:13;;;;;;;11.90;10.63;;;;;;;7.35;81.68;93652.34;5026136;28;20276;-68
2022/11/23 01:36:39;;;;;;;12.37;11.13;;;;;;;7.33;81.91;93659.53;5029726;28;20293;-63
2022/11/23 01:39:05;;;;;;;12.33;11.10;;;;;;;7.37;81.95;93663.44;5030168;28;20183;-63
2022/11/23 01:41:36;;;;;;;11.87;10.67;;;;;;;7.46;80.93;93664.25;5023650;28;20213;-63
2022/11/23 01:44:24;;;;;;;11.40;9.67;;;;;;;7.48;80.01;93657.03;5024986;28;20186;-64
2022/11/23 01:46:49;;;;;;;12.07;10.10;;;;;;;7.41;80.73;93650.84;5029651;28;20205;-63
2022/11/23 01:49:15;;;;;;;11.67;10.47;;;;;;;7.42;80.95;93648.06;5021663;28;20194;-63
2022/11/23 01:51:44;;;;;;;12.70;11.40;;;;;;;7.42;81.47;93660.31;5025258;28;20193;-63
2022/11/23 01:54:13;;;;;;;12.77;11.50;;;;;;;7.45;81.52;93663.41;5027404;28;20221;-63
2022/11/23 01:56:42;;;;;;;12.40;11.10;;;;;;;7.44;80.98;93664.41;5029543;28;20658;-63
2022/11/23 01:59:14;;;;;;;11.30;10.20;;;;;;;7.49;80.66;93662.09;5027811;28;20194;-63
2022/11/23 02:01:39;;;;;;;11.97;10.77;;;;;;;7.40;80.66;93664.88;5020583;28;20207;-63
2022/11/23 02:04:08;;;;;;;11.60;10.50;;;;;;;7.39;81.05;93666.69;5029081;28;20266;-63
2022/11/23 02:06:34;;;;;;;12.27;10.97;;;;;;;7.36;81.16;93661.00;5027065;28;20324;-63
2022/11/23 02:08:59;;;;;;;11.73;10.63;;;;;;;7.34;81.56;93655.91;5030588;28;20749;-63
2022/11/23 02:11:25;;;;;;;11.67;10.47;;;;;;;7.36;81.66;93647.91;5028019;28;20210;-63
2022/11/23 02:13:50;;;;;;;11.03;9.93;;;;;;;7.40;81.78;93629.09;5030617;28;20265;-63
2022/11/23 02:16:17;;;;;;;11.73;10.37;;;;;;;7.39;81.95;93645.78;5020037;28;20215;-63
2022/11/23 02:18:46;;;;;;;10.70;9.70;;;;;;;7.32;82.07;93634.34;5024134;28;20203;-63
2022/11/23 02:21:12;;;;;;;10.23;9.23;;;;;;;7.29;82.08;93650.38;5029229;28;20269;-63
2022/11/23 02:24:14;;;;;;;10.23;9.30;;;;;;;7.30;82.46;93636.31;5029526;28;20214;-63
2022/11/23 02:26:40;;;;;;;10.00;8.77;;;;;;;7.42;82.09;93631.56;5025123;28;20189;-63
2022/11/23 02:29:21;;;;;;;10.47;9.57;;;;;;;7.42;81.89;93631.56;5026066;28;20190;-63
2022/11/23 02:31:46;;;;;;;10.40;9.27;;;;;;;7.43;81.98;93633.19;5030025;28;20302;-63
2022/11/23 02:34:11;;;;;;;9.60;8.70;;;;;;;7.50;81.37;93611.41;5029048;28;20189;-63
2022/11/23 02:36:43;;;;;;;11.00;9.60;;;;;;;7.41;81.86;93617.66;5025955;28;20194;-64
2022/11/23 02:39:20;;;;;;;11.47;10.37;;;;;;;7.35;81.74;93602.66;5033382;28;20201;-64
2022/11/23 02:41:49;;;;;;;11.90;10.80;;;;;;;7.22;81.60;93607.59;5030147;28;20256;-63
2022/11/23 02:44:28;;;;;;;13.50;12.17;;;;;;;7.28;80.97;93581.56;5033472;28;20186;-64
2022/11/23 02:46:54;;;;;;;12.93;11.63;;;;;;;7.24;82.45;93585.53;5023685;28;20179;-64
2022/11/23 02:49:19;;;;;;;13.47;12.07;;;;;;;7.41;82.24;93581.06;5027279;28;20318;-64
2022/11/23 02:51:45;;;;;;;14.23;12.30;;;;;;;7.43;81.68;93567.78;5031070;28;20278;-64
2022/11/23 02:54:10;;;;;;;14.17;12.73;;;;;;;7.48;81.36;93591.66;5029447;28;20197;-64
2022/11/23 02:56:35;;;;;;;13.00;11.77;;;;;;;7.56;80.96;93593.44;5023998;28;20198;-64
2022/11/23 02:59:01;;;;;;;13.03;11.83;;;;;;;7.46;80.90;93596.25;5027239;28;20186;-63
2022/11/23 03:01:27;;;;;;;12.90;11.50;;;;;;;7.36;80.93;93593.00;5030649;28;20238;-64
2022/11/23 03:03:53;;;;;;;14.50;13.00;;;;;;;7.27;81.36;93589.56;5034515;28;20190;-64
2022/11/23 03:06:18;;;;;;;13.90;12.60;;;;;;;7.23;81.74;93562.13;5032135;28;20264;-63
2022/11/23 03:08:43;;;;;;;13.90;12.50;;;;;;;7.27;82.08;93556.41;5024987;28;20235;-64
2022/11/23 03:11:09;;;;;;;13.93;12.53;;;;;;;7.42;81.52;93568.78;5030358;28;20186;-64
2022/11/23 03:13:34;;;;;;;14.33;12.83;;;;;;;7.42;80.65;93568.78;5034187;28;20284;-64
2022/11/23 03:16:00;;;;;;;13.27;11.97;;;;;;;7.33;80.74;93568.00;5032673;28;20186;-64
2022/11/23 03:18:25;;;;;;;13.43;12.03;;;;;;;7.27;81.13;93569.50;5029565;28;20189;-65
2022/11/23 03:20:50;;;;;;;13.90;12.50;;;;;;;7.43;80.66;93555.56;5029521;28;20189;-64
2022/11/23 03:23:16;;;;;;;14.07;12.70;;;;;;;7.42;80.35;93559.13;5032398;28;20310;-64
2022/11/23 03:25:41;;;;;;;11.77;10.67;;;;;;;7.12;81.59;93562.50;5031065;28;20340;-64
2022/11/23 03:28:07;;;;;;;11.97;10.80;;;;;;;7.26;81.28;93567.03;5025674;28;20186;-64
2022/11/23 03:30:33;;;;;;;12.63;11.40;;;;;;;7.20;81.12;93565.91;5029058;28;20230;-64
2022/11/23 03:32:58;;;;;;;12.43;11.20;;;;;;;7.20;81.36;93562.47;5026901;28;20174;-65
2022/11/23 03:35:23;;;;;;;12.13;10.87;;;;;;;7.23;81.17;93556.91;5033122;28;20236;-64
2022/11/23 03:37:49;;;;;;;12.17;11.00;;;;;;;7.13;82.14;93541.41;5030320;28;20706;-65
2022/11/23 03:40:14;;;;;;;11.97;10.80;;;;;;;7.19;82.35;93551.22;5025843;28;20276;-64
2022/11/23 03:42:40;;;;;;;12.23;10.93;;;;;;;7.24;82.28;93550.69;5021471;28;20210;-65
2022/11/23 03:45:06;;;;;;;12.43;11.23;;;;;;;7.27;81.53;93537.28;5023038;28;20182;-63
2022/11/23 03:47:32;;;;;;;11.83;10.60;;;;;;;7.21;82.03;93530.13;5031975;28;20619;-64
2022/11/23 03:49:57;;;;;;;11.43;10.27;;;;;;;7.14;83.18;93542.25;5024000;28;20186;-64
2022/11/23 03:52:23;;;;;;;11.90;10.73;;;;;;;7.13;83.03;93536.19;5023531;28;20174;-64
2022/11/23 03:54:48;;;;;;;11.27;10.17;;;;;;;7.21;82.11;93527.50;5026866;28;20193;-63
2022/11/23 03:57:13;;;;;;;11.53;10.43;;;;;;;7.21;82.23;93519.66;5034936;28;20249;-63
2022/11/23 03:59:39;;;;;;;11.03;9.93;;;;;;;7.13;82.67;93517.06;5020883;28;20183;-63
2022/11/23 04:02:06;;;;;;;11.77;10.67;;;;;;;7.12;83.31;93521.47;5026990;28;20198;-63
2022/11/23 04:04:32;;;;;;;11.47;10.27;;;;;;;7.22;82.29;93522.13;5027564;28;20284;-63
2022/11/23 04:06:57;;;;;;;11.20;10.10;;;;;;;7.25;82.19;93532.22;5027254;28;20249;-64
2022/11/23 04:09:22;;;;;;;11.37;10.10;;;;;;;7.19;82.12;93529.47;5026249;28;20174;-63
2022/11/23 04:11:48;;;;;;;12.97;10.63;;;;;;;7.20;82.41;93537.16;5026606;28;20619;-64
2022/11/23 04:14:13;;;;;;;11.53;10.43;;;;;;;7.23;82.64;93528.16;5022843;28;20195;-64
2022/11/23 04:16:39;;;;;;;11.80;10.57;;;;;;;7.28;82.52;93547.59;5026218;28;20225;-63
2022/11/23 04:19:04;;;;;;;11.70;10.60;;;;;;;7.21;82.00;93532.72;5031190;28;20262;-63
2022/11/23 04:21:30;;;;;;;12.67;11.37;;;;;;;7.29;82.12;93554.44;5025019;28;20194;-63
2022/11/23 04:23:55;;;;;;;11.50;10.40;;;;;;;7.32;81.89;93540.22;5019771;28;20188;-63
2022/11/23 04:26:20;;;;;;;11.93;10.73;;;;;;;7.35;81.81;93544.28;5021894;28;20182;-63
2022/11/23 04:28:46;;;;;;;12.10;10.90;;;;;;;7.17;82.03;93516.56;5028174;28;20217;-63
2022/11/23 04:31:11;;;;;;;11.70;10.60;;;;;;;7.26;82.33;93525.19;5022657;28;20287;-63
2022/11/23 04:33:37;;;;;;;11.63;10.53;;;;;;;7.22;82.86;93534.38;5021820;28;20213;-64
2022/11/23 04:36:02;;;;;;;12.27;10.53;;;;;;;7.22;82.89;93539.59;5018638;28;20183;-64
2022/11/23 04:38:28;;;;;;;12.73;11.47;;;;;;;7.34;82.27;93519.13;5020919;28;20278;-63
2022/11/23 04:40:53;;;;;;;13.53;12.13;;;;;;;7.39;81.17;93515.03;5018997;28;20245;-63
2022/11/23 04:43:19;;;;;;;13.73;12.43;;;;;;;7.19;82.22;93535.53;5018004;28;20183;-64
2022/11/23 04:45:44;;;;;;;14.00;12.60;;;;;;;7.16;82.97;93561.16;5020927;28;20197;-64
2022/11/23 04:48:10;;;;;;;13.03;11.80;;;;;;;7.27;83.07;93568.66;5019687;28;20247;-63
2022/11/23 04:50:36;;;;;;;12.90;11.70;;;;;;;7.27;82.25;93568.66;5021127;28;20297;-64
2022/11/23 04:53:02;;;;;;;14.23;12.77;;;;;;;7.31;82.00;93564.72;5018415;28;20274;-63
2022/11/23 04:55:27;;;;;;;14.23;12.70;;;;;;;7.23;82.17;93556.91;5022324;28;20242;-64
2022/11/23 04:57:53;;;;;;;15.73;14.20;;;;;;;7.24;82.53;93569.00;5017947;28;20228;-63
2022/11/23 05:00:18;;;;;;;13.63;12.33;;;;;;;7.21;82.88;93583.22;5020335;28;20193;-63
2022/11/23 05:02:44;;;;;;;14.07;12.67;;;;;;;7.33;82.64;93590.72;5024306;28;20297;-63
2022/11/23 05:05:09;;;;;;;14.20;12.20;;;;;;;7.39;82.07;93598.72;5023976;28;20189;-63
2022/11/23 05:07:34;;;;;;;14.30;12.93;;;;;;;7.42;82.18;93587.09;5018804;28;20240;-63
2022/11/23 05:10:00;;;;;;;14.73;13.23;;;;;;;7.32;82.28;93576.81;5016865;28;20195;-64
2022/11/23 05:12:25;;;;;;;15.30;13.80;;;;;;;7.29;82.89;93592.84;5021026;28;20214;-64
2022/11/23 05:14:51;;;;;;;16.37;14.87;;;;;;;7.33;82.78;93570.63;5020778;28;20243;-64
2022/11/23 05:17:16;;;;;;;16.53;14.93;;;;;;;7.28;82.74;93576.34;5019398;28;20268;-63
2022/11/23 05:19:42;;;;;;;16.63;15.03;;;;;;;7.27;83.13;93589.56;5018051;28;20187;-63
2022/11/23 05:22:07;;;;;;;15.87;14.27;;;;;;;7.26;83.66;93593.97;5021972;28;20206;-63
2022/11/23 05:24:32;;;;;;;16.83;15.17;;;;;;;7.36;83.26;93572.91;5019800;28;20189;-63
2022/11/23 05:26:58;;;;;;;16.83;15.17;;;;;;;7.29;84.02;93567.50;5016170;28;20179;-65
2022/11/23 05:29:23;;;;;;;15.90;14.37;;;;;;;7.43;83.10;93552.94;5014135;28;20191;-64
2022/11/23 05:31:49;;;;;;;16.83;15.17;;;;;;;7.31;83.43;93567.34;5060088;28;20304;-64
2022/11/23 05:34:15;;;;;;;16.87;15.17;;;;;;;7.27;83.74;93561.66;5041854;28;20191;-64
2022/11/23 05:36:40;;;;;;;16.07;14.47;;;;;;;7.14;84.30;93560.53;5041800;28;20189;-63
2022/11/23 05:39:06;;;;;;;18.67;15.93;;;;;;;7.20;84.47;93567.72;5048057;28;20207;-63
2022/11/23 05:41:31;;;;;;;16.30;14.53;;;;;;;7.30;84.45;93584.03;5048558;28;20201;-64
2022/11/23 05:43:57;;;;;;;17.67;15.87;;;;;;;7.44;83.72;93559.78;5044392;28;20193;-63
2022/11/23 05:46:22;;;;;;;17.57;15.90;;;;;;;7.56;82.84;93564.66;5043477;28;20189;-64
2022/11/23 05:48:48;;;;;;;18.20;16.57;;;;;;;7.44;83.04;93559.78;5046955;28;20196;-65
2022/11/23 05:51:13;;;;;;;18.73;16.93;;;;;;;7.47;82.99;93559.44;5046540;28;20204;-64
2022/11/23 05:53:38;;;;;;;19.10;17.30;;;;;;;7.57;82.50;93568.91;5049675;28;20259;-64
2022/11/23 05:56:04;;;;;;;17.87;16.17;;;;;;;7.53;82.21;93573.66;5040454;28;20323;-64
2022/11/23 05:58:30;;;;;;;19.77;17.77;;;;;;;7.68;82.38;93574.59;5047453;28;20215;-63
2022/11/23 06:00:59;;;;;;;20.77;18.83;;;;;;;7.59;81.56;93574.78;5045168;28;20193;-64
2022/11/23 06:03:26;;;;;;;23.00;19.60;;;;;;;7.47;82.30;93556.84;5041752;28;20350;-63
2022/11/23 06:05:51;;;;;;;22.13;19.93;;;;;;;7.47;82.65;93577.75;5044754;28;20193;-63
2022/11/23 06:08:17;;;;;;;21.70;19.70;;;;;;;7.53;82.76;93570.22;5049946;28;20205;-64
2022/11/23 06:10:42;;;;;;;21.83;19.73;;;;;;;7.56;82.82;93567.28;5064291;28;20192;-64
2022/11/23 06:13:08;;;;;;;21.37;19.27;;;;;;;7.65;82.86;93551.38;5053437;28;20679;-64
2022/11/23 06:15:33;;;;;;;21.93;19.70;;;;;;;7.59;82.57;93577.38;5046079;28;20193;-64
2022/11/23 06:18:00;;;;;;;21.87;19.87;;;;;;;7.85;81.88;93566.66;5049740;28;20189;-64
2022/11/23 06:20:26;;;;;;;20.77;18.77;;;;;;;7.71;82.63;93589.13;5050176;28;20192;-63
2022/11/23 06:22:53;;;;;;;22.73;19.77;;;;;;;7.87;82.17;93596.91;5046985;28;20213;-63
2022/11/23 06:25:19;;;;;;;21.20;18.93;;;;;;;7.84;81.94;93588.59;5041296;28;20251;-62
2022/11/23 06:27:59;;;;;;;23.33;20.60;;;;;;;7.80;81.99;93580.25;5046836;28;20173;-61
2022/11/23 06:30:26;;;;;;;23.43;21.13;;;;;;;7.94;82.28;93613.59;5034833;28;20230;-61
2022/11/23 06:32:51;;;;;;;21.63;19.63;;;;;;;8.00;81.73;93593.75;5024820;28;20294;-63
2022/11/23 06:35:17;;;;;;;20.87;18.87;;;;;;;8.07;81.12;93581.63;5023364;28;20197;-64
2022/11/23 06:37:43;;;;;;;21.63;19.50;;;;;;;8.09;80.63;93584.88;5022500;28;20198;-63
2022/11/23 06:40:10;;;;;;;19.53;17.77;;;;;;;7.97;81.03;93575.78;5027104;28;20197;-64
2022/11/23 06:42:35;;;;;;;19.90;17.90;;;;;;;7.97;81.25;93594.09;5018239;28;20214;-65
2022/11/23 06:45:01;;;;;;;20.60;18.53;;;;;;;8.02;81.33;93611.91;5024792;28;20228;-66
2022/11/23 06:47:27;;;;;;;19.70;17.80;;;;;;;8.15;80.93;93588.59;5019996;28;20202;-64
2022/11/23 06:49:53;;;;;;;20.37;18.47;;;;;;;8.17;81.05;93584.81;5022587;28;20206;-64
2022/11/23 06:52:18;;;;;;;21.77;19.63;;;;;;;8.24;80.94;93598.06;5017532;28;20178;-68
2022/11/23 06:54:44;;;;;;;19.20;17.40;;;;;;;8.33;80.32;93588.34;5028630;28;20232;-66
2022/11/23 06:57:10;;;;;;;18.47;16.67;;;;;;;8.31;80.22;93595.53;5010862;28;20297;-64
2022/11/23 06:59:35;;;;;;;18.97;17.13;;;;;;;8.31;80.19;93592.94;5022658;28;20293;-65
2022/11/23 07:02:01;;;;;;;19.80;17.90;;;;;;;8.36;80.23;93570.47;5023563;28;20206;-65
2022/11/23 07:04:26;;;;;;;20.70;18.80;;;;;;;8.39;81.02;93575.41;5024541;28;20208;-66
2022/11/23 07:06:52;;;;;;;20.57;18.77;;;;;;;8.55;80.69;93584.97;5019568;28;20236;-64
2022/11/23 07:09:18;;;;;;;20.13;18.23;;;;;;;8.60;79.92;93587.84;5022864;28;20187;-63
2022/11/23 07:11:44;;;;;;;19.73;17.83;;;;;;;8.47;79.73;93602.53;5024180;28;20197;-64
2022/11/23 07:14:10;;;;;;;20.87;18.77;;;;;;;8.41;80.37;93588.31;5023278;28;20190;-64
2022/11/23 07:16:36;;;;;;;19.73;17.83;;;;;;;8.39;80.53;93583.28;5021289;28;20237;-64
2022/11/23 07:19:01;;;;;;;20.37;18.53;;;;;;;8.54;80.77;93579.88;5019536;28;20207;-64
2022/11/23 07:21:27;;;;;;;20.93;18.93;;;;;;;8.55;80.90;93600.69;5013290;28;20214;-64
2022/11/23 07:23:52;;;;;;;19.50;17.60;;;;;;;8.54;80.67;93587.75;5032148;28;20311;-66
2022/11/23 07:26:17;;;;;;;20.87;18.97;;;;;;;8.56;80.57;93596.25;5013443;28;20191;-67
2022/11/23 07:28:43;;;;;;;19.30;17.60;;;;;;;8.61;80.27;93573.78;5014845;28;20273;-67
2022/11/23 07:31:08;;;;;;;19.50;17.60;;;;;;;8.45;80.55;93586.19;5028432;28;20252;-68
2022/11/23 07:33:34;;;;;;;23.23;20.77;;;;;;;8.51;81.43;93630.03;5043650;28;20197;-67
2022/11/23 07:36:01;;;;;;;21.57;19.47;;;;;;;8.61;81.44;93643.72;5037778;28;20252;-68
2022/11/23 07:38:27;;;;;;;22.13;20.00;;;;;;;8.70;80.93;93590.25;5041160;28;20185;-66
2022/11/23 07:40:52;;;;;;;24.23;21.93;;;;;;;8.72;80.40;93611.06;5041551;28;20275;-67
2022/11/23 07:43:18;;;;;;;22.63;20.43;;;;;;;8.76;80.51;93597.41;5040311;28;20213;-66
2022/11/23 07:45:43;;;;;;;22.53;20.43;;;;;;;8.89;79.64;93596.81;5039604;28;20186;-67
2022/11/23 07:48:09;;;;;;;22.03;20.03;;;;;;;9.05;79.01;93617.66;5039093;28;20189;-65
2022/11/23 07:50:36;;;;;;;21.50;19.47;;;;;;;9.15;78.47;93595.63;5036850;28;20830;-65
2022/11/23 07:53:03;;;;;;;23.53;21.13;;;;;;;9.38;78.09;93603.44;5044319;28;20556;-66
2022/11/23 07:55:29;;;;;;;22.53;20.43;;;;;;;9.38;77.56;93608.69;5041110;28;20190;-64
2022/11/23 07:57:55;;;;;;;24.10;21.83;;;;;;;9.16;77.74;93595.44;5037955;28;20575;-64
2022/11/23 08:00:22;;;;;;;22.70;20.50;;;;;;;8.89;77.30;93582.91;5044823;28;20193;-65
2022/11/23 08:02:47;;;;;;;23.60;21.43;;;;;;;8.93;78.44;93581.56;5037396;28;20205;-65
2022/11/23 08:05:13;;;;;;;22.67;20.53;;;;;;;9.10;78.66;93604.03;5037547;28;20223;-65
2022/11/23 08:07:39;;;;;;;23.57;21.40;;;;;;;9.27;77.69;93605.53;5040331;28;20193;-65
2022/11/23 08:10:05;;;;;;;22.10;20.10;;;;;;;9.35;77.32;93583.63;5042874;28;20193;-64
2022/11/23 08:12:30;;;;;;;21.87;19.77;;;;;;;9.35;77.79;93603.78;5047951;28;20192;-65
2022/11/23 08:14:55;;;;;;;22.47;20.37;;;;;;;9.57;77.13;93586.34;5042993;28;20246;-65
2022/11/23 08:17:21;;;;;;;20.97;19.07;;;;;;;9.57;76.57;93584.56;5041135;28;20216;-65
2022/11/23 08:19:47;;;;;;;20.17;18.37;;;;;;;9.55;77.01;93589.16;5042994;28;20190;-66
2022/11/23 08:22:13;;;;;;;19.07;16.57;;;;;;;9.52;76.56;93583.47;5040742;28;20301;-66
2022/11/23 08:24:38;;;;;;;17.73;16.10;;;;;;;9.66;75.57;93556.41;5042426;28;20268;-67
2022/11/23 08:27:04;;;;;;;19.17;17.37;;;;;;;9.73;76.04;93559.94;5038563;28;20182;-64
2022/11/23 08:29:29;;;;;;;19.03;17.23;;;;;;;9.85;76.56;93581.28;5044638;28;20196;-67
2022/11/23 08:31:55;;;;;;;20.07;18.37;;;;;;;9.85;76.41;93586.53;5045237;28;20225;-66
2022/11/23 08:34:20;;;;;;;21.03;19.03;;;;;;;9.98;76.55;93591.97;5044737;28;20281;-66
2022/11/23 08:36:47;;;;;;;21.10;19.20;;;;;;;10.20;75.90;93578.88;5039831;28;20185;-66
2022/11/23 08:39:13;;;;;;;22.03;20.13;;;;;;;10.36;75.59;93583.94;5039807;28;20215;-64
2022/11/23 08:41:40;;;;;;;22.43;20.23;;;;;;;10.63;74.90;93584.22;5041569;28;20300;-64
2022/11/23 08:44:08;;;;;;;22.97;21.03;;;;;;;10.58;74.70;93583.00;5043953;28;20182;-66
2022/11/23 08:46:34;;;;;;;23.43;21.27;;;;;;;10.73;73.88;93577.66;5036648;28;20604;-67
2022/11/23 08:48:59;;;;;;;26.47;24.00;;;;;;;10.66;74.37;93589.91;5047071;28;20185;-66
2022/11/23 08:51:25;;;;;;;27.83;25.20;;;;;;;10.81;74.41;93590.66;5043144;28;20227;-66
2022/11/23 08:53:51;;;;;;;24.50;22.30;;;;;;;10.85;73.56;93592.91;5038251;28;20195;-67
2022/11/23 08:56:17;;;;;;;22.43;20.33;;;;;;;10.95;73.72;93603.94;5043273;28;20194;-68
2022/11/23 08:58:43;;;;;;;21.57;19.57;;;;;;;10.58;72.49;93588.25;5039748;28;20190;-69
2022/11/23 09:01:13;;;;;;;20.70;18.90;;;;;;;10.55;73.46;93595.66;5043406;28;20200;-66
2022/11/23 09:03:39;;;;;;;23.63;21.53;;;;;;;10.55;74.35;93588.59;5036558;28;20276;-66
2022/11/23 09:06:05;;;;;;;22.90;20.77;;;;;;;10.69;74.32;93568.53;5045014;28;20268;-66
2022/11/23 09:08:30;;;;;;;20.87;18.97;;;;;;;10.82;73.52;93579.16;5025911;28;20255;-67
2022/11/23 09:11:00;;;;;;;23.47;21.33;;;;;;;10.93;72.97;93596.25;5046259;28;20189;-65
2022/11/23 09:13:25;;;;;;;21.27;19.00;;;;;;;11.02;72.55;93591.69;5043473;28;20182;-66
2022/11/23 09:15:51;;;;;;;17.20;15.60;;;;;;;11.14;71.78;93578.81;5045866;28;20174;-66
2022/11/23 09:18:16;;;;;;;17.40;15.70;;;;;;;11.00;71.75;93564.75;5038200;28;20186;-66
2022/11/23 09:20:41;;;;;;;15.53;14.03;;;;;;;11.07;70.29;93557.72;5040902;28;20221;-65
2022/11/23 09:23:08;;;;;;;15.53;14.17;;;;;;;11.20;70.62;93554.34;5056442;28;20205;-65
2022/11/23 09:25:33;;;;;;;15.90;14.40;;;;;;;11.13;71.56;93561.41;5040445;28;20185;-66
2022/11/23 09:27:59;;;;;;;14.70;12.53;;;;;;;11.10;71.56;93549.44;5037180;28;20209;-67
2022/11/23 09:30:25;;;;;;;14.47;12.97;;;;;;;11.20;70.90;93578.88;5044492;28;20225;-66
2022/11/23 09:32:51;;;;;;;12.80;11.50;;;;;;;11.33;70.29;93570.25;5042767;28;20186;-65
2022/11/23 09:35:16;;;;;;;16.03;13.63;;;;;;;11.23;69.12;93562.72;5047276;28;20251;-66
2022/11/23 09:37:42;;;;;;;15.07;13.77;;;;;;;11.26;69.51;93553.63;5047985;28;20181;-65
2022/11/23 09:40:15;;;;;;;14.77;13.47;;;;;;;11.44;70.08;93561.00;5049744;28;20835;-66
2022/11/23 09:42:56;;;;;;;16.10;14.70;;;;;;;11.63;68.71;93572.69;5046223;28;20205;-65
2022/11/23 09:45:46;;;;;;;20.57;18.67;;;;;;;11.58;68.32;93568.00;5051443;28;20181;-65
2022/11/23 09:48:24;;;;;;;20.40;18.40;;;;;;;11.46;68.32;93562.44;5045827;28;20299;-65
2022/11/23 09:50:58;;;;;;;16.97;15.27;;;;;;;10.96;69.55;93551.16;5044300;28;20209;-64
2022/11/23 09:53:38;;;;;;;17.47;15.77;;;;;;;10.63;71.25;93555.31;5046359;28;20177;-65
2022/11/23 09:56:13;;;;;;;18.37;16.57;;;;;;;10.68;71.89;93564.25;5049376;28;20188;-65
2022/11/23 09:58:40;;;;;;;18.03;16.33;;;;;;;10.94;70.73;93558.44;5052111;28;20211;-65
2022/11/23 10:01:14;;;;;;;21.57;17.70;;;;;;;11.11;70.72;93550.25;5043867;28;20204;-66
2022/11/23 10:03:41;;;;;;;20.07;18.07;;;;;;;11.05;71.41;93557.09;5043218;28;20195;-65
2022/11/23 10:06:20;;;;;;;16.33;14.73;;;;;;;11.43;70.23;93551.50;5053519;28;20204;-65
2022/11/23 10:08:53;;;;;;;14.93;13.43;;;;;;;11.33;70.69;93551.81;5050025;28;20182;-66
2022/11/23 10:12:00;;;;;;;13.30;11.90;;;;;;;11.14;70.74;93555.13;5050445;28;20225;-65
2022/11/23 10:14:52;;;;;;;12.53;11.10;;;;;;;11.03;71.24;93549.38;5032665;28;20195;-66
2022/11/23 10:17:47;;;;;;;12.33;11.13;;;;;;;11.07;71.49;93556.91;5052660;28;20200;-65
2022/11/23 10:20:42;;;;;;;12.47;11.17;;;;;;;10.90;72.48;93554.53;5048166;28;20185;-65
2022/11/23 10:23:29;;;;;;;11.93;10.83;;;;;;;10.92;73.25;93552.53;5062086;28;20201;-66
2022/11/23 10:25:55;;;;;;;13.20;10.10;;;;;;;11.04;72.97;93552.84;5050322;28;20189;-64
2022/11/23 10:28:21;;;;;;;11.20;9.97;;;;;;;10.96;73.10;93553.81;5048142;28;20201;-64
2022/11/23 10:31:16;;;;;;;11.37;10.27;;;;;;;11.16;72.30;93542.63;5036620;28;20300;-65
2022/11/23 10:33:59;;;;;;;10.33;9.33;;;;;;;11.17;72.58;93546.84;5016158;28;20281;-65
2022/11/23 10:36:25;;;;;;;9.13;8.23;;;;;;;11.16;72.30;93542.63;5021209;28;20186;-65
2022/11/23 10:38:56;;;;;;;8.73;7.93;;;;;;;11.10;72.50;93538.13;5017318;28;20205;-64
2022/11/23 10:41:22;;;;;;;9.10;8.30;;;;;;;11.20;72.56;93535.94;5018051;28;20670;-67
2022/11/23 10:43:59;;;;;;;8.47;7.67;;;;;;;11.14;73.07;93536.72;5027145;28;20487;-66
2022/11/23 10:46:28;;;;;;;11.13;8.03;;;;;;;11.19;72.98;93532.50;5024627;28;20272;-65
2022/11/23 10:48:54;;;;;;;8.83;8.03;;;;;;;11.18;73.48;93537.97;5034436;28;20190;-64
2022/11/23 10:51:28;;;;;;;8.87;8.03;;;;;;;11.23;73.02;93536.41;5012473;28;20233;-64
2022/11/23 10:54:01;;;;;;;8.83;8.03;;;;;;;11.17;73.34;93533.69;5019927;28;20213;-64
2022/11/23 10:56:28;;;;;;;10.77;8.90;;;;;;;11.13;73.18;93529.84;5014361;28;20195;-63
2022/11/23 10:58:54;;;;;;;9.97;8.97;;;;;;;11.13;73.37;93538.53;5021422;28;20281;-63
2022/11/23 11:01:25;;;;;;;10.30;8.40;;;;;;;11.17;73.06;93545.06;5016782;28;20273;-64
2022/11/23 11:03:52;;;;;;;10.77;8.57;;;;;;;11.37;73.05;93552.28;5022934;28;20190;-64
2022/11/23 11:06:33;;;;;;;9.40;8.37;;;;;;;11.55;71.40;93549.16;5024013;28;20278;-65
2022/11/23 11:09:18;;;;;;;9.93;7.43;;;;;;;12.21;69.31;93540.75;5025408;28;20193;-64
2022/11/23 11:11:46;;;;;;;10.57;9.07;;;;;;;12.83;66.71;93533.59;5022387;28;20288;-63
2022/11/23 11:14:15;;;;;;;8.53;7.77;;;;;;;13.29;64.45;93528.34;5023562;28;20182;-65
2022/11/23 11:16:52;;;;;;;11.97;9.03;;;;;;;13.70;62.41;93523.81;5018981;28;20207;-64
2022/11/23 11:19:32;;;;;;;10.23;9.18;;;;;;;13.82;61.42;93533.53;5015618;28;20202;-63
2022/11/23 11:22:00;;;;;;;11.75;8.93;;;;;;;13.68;61.69;93531.94;5018541;28;20211;-63
2022/11/23 11:24:45;;;;;;;9.38;7.63;;;;;;;13.80;61.52;93532.13;5024566;28;20273;-63
2022/11/23 11:27:21;;;;;;;8.87;7.20;;;;;;;14.09;60.16;93522.88;5016705;28;20304;-63